Map

Track Data

SID SEASON NUMBER BASIN SUBBASIN NAME ISO_TIME NATURE LAT LON WMO_WIND WMO_PRES WMO_AGENCY TRACK_TYPE DIST2LAND LANDFALL IFLAG USA_AGENCY USA_ATCF_ID USA_LAT USA_LON USA_RECORD USA_STATUS USA_WIND USA_PRES USA_SSHS USA_R34_NE USA_R34_SE USA_R34_SW USA_R34_NW USA_R50_NE USA_R50_SE USA_R50_SW USA_R50_NW USA_R64_NE USA_R64_SE USA_R64_SW USA_R64_NW USA_POCI USA_ROCI USA_RMW USA_EYE TOKYO_LAT TOKYO_LON TOKYO_GRADE TOKYO_WIND TOKYO_PRES TOKYO_R50_DIR TOKYO_R50_LONG TOKYO_R50_SHORT TOKYO_R30_DIR TOKYO_R30_LONG TOKYO_R30_SHORT TOKYO_LAND CMA_LAT CMA_LON CMA_CAT CMA_WIND CMA_PRES HKO_LAT HKO_LON HKO_CAT HKO_WIND HKO_PRES NEWDELHI_LAT NEWDELHI_LON NEWDELHI_GRADE NEWDELHI_WIND NEWDELHI_PRES NEWDELHI_CI NEWDELHI_DP NEWDELHI_POCI REUNION_LAT REUNION_LON REUNION_TYPE REUNION_WIND REUNION_PRES REUNION_TNUM REUNION_CI REUNION_RMW REUNION_R34_NE REUNION_R34_SE REUNION_R34_SW REUNION_R34_NW REUNION_R50_NE REUNION_R50_SE REUNION_R50_SW REUNION_R50_NW REUNION_R64_NE REUNION_R64_SE REUNION_R64_SW REUNION_R64_NW BOM_LAT BOM_LON BOM_TYPE BOM_WIND BOM_PRES BOM_TNUM BOM_CI BOM_RMW BOM_R34_NE BOM_R34_SE BOM_R34_SW BOM_R34_NW BOM_R50_NE BOM_R50_SE BOM_R50_SW BOM_R50_NW BOM_R64_NE BOM_R64_SE BOM_R64_SW BOM_R64_NW BOM_ROCI BOM_POCI BOM_EYE BOM_POS_METHOD BOM_PRES_METHOD NADI_LAT NADI_LON NADI_CAT NADI_WIND NADI_PRES WELLINGTON_LAT WELLINGTON_LON WELLINGTON_WIND WELLINGTON_PRES DS824_LAT DS824_LON DS824_STAGE DS824_WIND DS824_PRES TD9636_LAT TD9636_LON TD9636_STAGE TD9636_WIND TD9636_PRES TD9635_LAT TD9635_LON TD9635_WIND TD9635_PRES TD9635_ROCI NEUMANN_LAT NEUMANN_LON NEUMANN_CLASS NEUMANN_WIND NEUMANN_PRES MLC_LAT MLC_LON MLC_CLASS MLC_WIND MLC_PRES USA_GUST BOM_GUST BOM_GUST_PER REUNION_GUST REUNION_GUST_PER USA_SEAHGT USA_SEARAD_NE USA_SEARAD_SE USA_SEARAD_SW USA_SEARAD_NW STORM_SPEED STORM_DIR
1914240N20119 1914 27 WP MM NOT_NAMED 1914-08-27 22:00:00 NR 19.6000 118.600 main 249 249 __________O___ -1 19.6000 118.600 2 4 355
1914240N20119 1914 27 WP MM NOT_NAMED 1914-08-28 00:00:00 NR 19.7307 118.579 main 255 255 __________P___ -1 19.7307 118.579 2 4 353
1914240N20119 1914 27 WP MM NOT_NAMED 1914-08-28 03:00:00 NR 19.9215 118.549 main 277 277 __________P___ -1 19.9215 118.549 2 4 350
1914240N20119 1914 27 WP MM NOT_NAMED 1914-08-28 06:00:00 NR 20.0988 118.524 main 291 289 __________P___ -1 20.0988 118.524 2 3 352
1914240N20119 1914 27 WP MM NOT_NAMED 1914-08-28 09:00:00 NR 20.2544 118.504 main 289 289 __________P___ -1 20.2544 118.504 2 3 356
1914240N20119 1914 27 WP MM NOT_NAMED 1914-08-28 10:00:00 NR 20.3000 118.500 main 289 283 __________O___ -1 20.3000 118.500 2 3 0
1914240N20119 1914 27 WP MM NOT_NAMED 1914-08-28 12:00:00 NR 20.3812 118.494 main 283 276 __________P___ -1 20.3812 118.494 2 2 352
1914240N20119 1914 27 WP MM NOT_NAMED 1914-08-28 15:00:00 NR 20.4839 118.492 main 276 270 __________P___ -1 20.4839 118.492 2 2 0
1914240N20119 1914 27 WP MM NOT_NAMED 1914-08-28 18:00:00 NR 20.5751 118.495 main 270 264 __________P___ -1 20.5751 118.495 2 2 0
1914240N20119 1914 27 WP MM NOT_NAMED 1914-08-28 21:00:00 NR 20.6670 118.499 main 264 264 __________P___ -1 20.6670 118.499 2 2 3
1914240N20119 1914 27 WP MM NOT_NAMED 1914-08-28 22:00:00 NR 20.7000 118.500 main 264 258 __________O___ -1 20.7000 118.500 2 2 0
1914240N20119 1914 27 WP MM NOT_NAMED 1914-08-29 00:00:00 NR 20.7802 118.497 main 258 253 __________P___ -1 20.7802 118.497 2 3 0
1914240N20119 1914 27 WP MM NOT_NAMED 1914-08-29 03:00:00 NR 20.9070 118.493 main 253 248 __________P___ -1 20.9070 118.493 2 3 355
1914240N20119 1914 27 WP MM NOT_NAMED 1914-08-29 06:00:00 NR 21.0358 118.492 main 248 235 __________P___ -1 21.0358 118.492 2 3 0
1914240N20119 1914 27 WP MM NOT_NAMED 1914-08-29 09:00:00 NR 21.1605 118.497 main 235 235 __________P___ -1 21.1605 118.497 2 2 0
1914240N20119 1914 27 WP MM NOT_NAMED 1914-08-29 10:00:00 NR 21.2000 118.500 main 235 229 __________O___ -1 21.2000 118.500 2 2 9
1914240N20119 1914 27 WP MM NOT_NAMED 1914-08-29 12:00:00 NR 21.2776 118.508 main 229 222 __________P___ -1 21.2776 118.508 2 2 8
1914240N20119 1914 27 WP MM NOT_NAMED 1914-08-29 15:00:00 NR 21.3879 118.527 main 222 207 __________P___ -1 21.3879 118.527 2 2 9
1914240N20119 1914 27 WP MM NOT_NAMED 1914-08-29 18:00:00 NR 21.4879 118.553 main 207 201 __________P___ -1 21.4879 118.553 2 2 16
1914240N20119 1914 27 WP MM NOT_NAMED 1914-08-29 21:00:00 NR 21.5746 118.587 main 201 201 __________P___ -1 21.5746 118.587 2 2 19
1914240N20119 1914 27 WP MM NOT_NAMED 1914-08-29 22:00:00 NR 21.6000 118.600 main 201 201 __________O___ -1 21.6000 118.600 2 2 31
1914240N20119 1914 27 WP MM NOT_NAMED 1914-08-30 00:00:00 NR 21.6421 118.625 main 201 187 __________P___ -1 21.6421 118.625 2 1 34
1914240N20119 1914 27 WP MM NOT_NAMED 1914-08-30 03:00:00 NR 21.6926 118.669 main 187 187 __________P___ -1 21.6926 118.669 2 1 44
1914240N20119 1914 27 WP MM NOT_NAMED 1914-08-30 06:00:00 NR 21.7363 118.720 main 187 173 __________P___ -1 21.7363 118.720 2 1 49
1914240N20119 1914 27 WP MM NOT_NAMED 1914-08-30 09:00:00 NR 21.7824 118.779 main 173 173 __________P___ -1 21.7824 118.779 2 1 53
1914240N20119 1914 27 WP MM NOT_NAMED 1914-08-30 10:00:00 NR 21.8000 118.800 main 173 173 __________O___ -1 21.8000 118.800 2 2 48
1914240N20119 1914 27 WP MM NOT_NAMED 1914-08-30 12:00:00 NR 21.8417 118.847 main 173 158 __________P___ -1 21.8417 118.847 2 2 46
1914240N20119 1914 27 WP MM NOT_NAMED 1914-08-30 15:00:00 NR 21.9104 118.924 main 158 144 __________P___ -1 21.9104 118.924 2 2 44
1914240N20119 1914 27 WP MM NOT_NAMED 1914-08-30 18:00:00 NR 21.9867 119.002 main 144 131 __________P___ -1 21.9867 119.002 2 2 41
1914240N20119 1914 27 WP MM NOT_NAMED 1914-08-30 21:00:00 NR 22.0704 119.077 main 131 131 __________P___ -1 22.0704 119.077 2 2 37
1914240N20119 1914 27 WP MM NOT_NAMED 1914-08-30 22:00:00 NR 22.1000 119.100 main 131 127 __________O___ -1 22.1000 119.100 2 2 38
1914240N20119 1914 27 WP MM NOT_NAMED 1914-08-31 00:00:00 NR 22.1636 119.147 main 127 115 __________P___ -1 22.1636 119.147 2 2 31
1914240N20119 1914 27 WP MM NOT_NAMED 1914-08-31 03:00:00 NR 22.2653 119.211 main 115 102 __________P___ -1 22.2653 119.211 2 2 27
1914240N20119 1914 27 WP MM NOT_NAMED 1914-08-31 06:00:00 NR 22.3691 119.262 main 102 98 __________P___ -1 22.3691 119.262 2 2 20
1914240N20119 1914 27 WP MM NOT_NAMED 1914-08-31 09:00:00 NR 22.4688 119.295 main 98 98 __________P___ -1 22.4688 119.295 2 2 17
1914240N20119 1914 27 WP MM NOT_NAMED 1914-08-31 10:00:00 NR 22.5000 119.300 main 98 94 __________O___ -1 22.5000 119.300 2 2 0
1914240N20119 1914 27 WP MM NOT_NAMED 1914-08-31 12:00:00 NR 22.5609 119.319 main 94 94 __________P___ -1 22.5609 119.319 2 2 9
1914240N20119 1914 27 WP MM NOT_NAMED 1914-08-31 15:00:00 NR 22.6460 119.329 main 94 92 __________P___ -1 22.6460 119.329 2 2 0
1914240N20119 1914 27 WP MM NOT_NAMED 1914-08-31 18:00:00 NR 22.7211 119.305 main 92 88 __________P___ -1 22.7211 119.305 2 2 327
1914240N20119 1914 27 WP MM NOT_NAMED 1914-08-31 21:00:00 NR 22.7829 119.235 main 98 98 __________P___ -1 22.7829 119.235 2 2 309
1914240N20119 1914 27 WP MM NOT_NAMED 1914-08-31 22:00:00 NR 22.8000 119.200 main 98 98 __________O___ -1 22.8000 119.200 2 3 298
1914240N20119 1914 27 WP MM NOT_NAMED 1914-09-01 00:00:00 NR 22.8439 119.109 main 107 104 __________P___ -1 22.8439 119.109 2 3 291
1914240N20119 1914 27 WP MM NOT_NAMED 1914-09-01 03:00:00 NR 22.8974 118.929 main 124 124 __________P___ -1 22.8974 118.929 2 4 283
1914240N20119 1914 27 WP MM NOT_NAMED 1914-09-01 06:00:00 NR 22.9250 118.713 main 143 128 __________P___ -1 22.9250 118.713 2 4 272
1914240N20119 1914 27 WP MM NOT_NAMED 1914-09-01 09:00:00 NR 22.9143 118.479 main 128 121 __________P___ -1 22.9143 118.479 2 4 265
1914240N20119 1914 27 WP MM NOT_NAMED 1914-09-01 10:00:00 NR 22.9000 118.400 main 121 114 __________O___ -1 22.9000 118.400 2 4 250
1914240N20119 1914 27 WP MM NOT_NAMED 1914-09-01 12:00:00 NR 22.8430 118.258 main 123 112 __________P___ -1 22.8430 118.258 2 5 242
1914240N20119 1914 27 WP MM NOT_NAMED 1914-09-01 15:00:00 NR 22.7195 118.039 main 119 115 __________P___ -1 22.7195 118.039 2 5 237
1914240N20119 1914 27 WP MM NOT_NAMED 1914-09-01 18:00:00 NR 22.5754 117.813 main 123 121 __________P___ -1 22.5754 117.813 2 5 236
1914240N20119 1914 27 WP MM NOT_NAMED 1914-09-01 21:00:00 NR 22.4389 117.579 main 125 116 __________P___ -1 22.4389 117.579 2 5 239
1914240N20119 1914 27 WP MM NOT_NAMED 1914-09-01 22:00:00 NR 22.4000 117.500 main 116 106 __________O___ -1 22.4000 117.500 2 5 247
1914240N20119 1914 27 WP MM NOT_NAMED 1914-09-02 00:00:00 NR 22.3417 117.334 main 106 91 __________P___ -1 22.3417 117.334 2 5 252
1914240N20119 1914 27 WP MM NOT_NAMED 1914-09-02 03:00:00 NR 22.2730 117.078 main 91 84 __________P___ -1 22.2730 117.078 2 5 256
1914240N20119 1914 27 WP MM NOT_NAMED 1914-09-02 06:00:00 NR 22.2267 116.823 main 84 78 __________P___ -1 22.2267 116.823 2 5 261
1914240N20119 1914 27 WP MM NOT_NAMED 1914-09-02 09:00:00 NR 22.2029 116.578 main 78 78 __________P___ -1 22.2029 116.578 2 5 265
1914240N20119 1914 27 WP MM NOT_NAMED 1914-09-02 10:00:00 NR 22.2000 116.500 main 78 70 __________O___ -1 22.2000 116.500 2 4 268
1914240N20119 1914 27 WP MM NOT_NAMED 1914-09-02 12:00:00 NR 22.1968 116.347 main 70 63 __________P___ -1 22.1968 116.347 2 4 272
1914240N20119 1914 27 WP MM NOT_NAMED 1914-09-02 15:00:00 NR 22.2111 116.131 main 63 56 __________P___ -1 22.2111 116.131 2 4 277
1914240N20119 1914 27 WP MM NOT_NAMED 1914-09-02 18:00:00 NR 22.2424 115.932 main 56 44 __________P___ -1 22.2424 115.932 2 4 282
1914240N20119 1914 27 WP MM NOT_NAMED 1914-09-02 21:00:00 NR 22.2846 115.754 main 44 45 __________P___ -1 22.2846 115.754 2 3 285
1914240N20119 1914 27 WP MM NOT_NAMED 1914-09-02 22:00:00 NR 22.3000 115.700 main 45 44 __________O___ -1 22.3000 115.700 2 3 287
1914240N20119 1914 27 WP MM NOT_NAMED 1914-09-03 00:00:00 NR 22.3275 115.605 main 44 33 __________P___ -1 22.3275 115.605 2 3 290
1914240N20119 1914 27 WP MM NOT_NAMED 1914-09-03 03:00:00 NR 22.3751 115.481 main 33 33 __________P___ -1 22.3751 115.481 2 2 295
1914240N20119 1914 27 WP MM NOT_NAMED 1914-09-03 06:00:00 NR 22.4277 115.366 main 33 22 __________P___ -1 22.4277 115.366 2 2 296
1914240N20119 1914 27 WP MM NOT_NAMED 1914-09-03 09:00:00 NR 22.4820 115.245 main 24 24 __________P___ -1 22.4820 115.245 2 3 296
1914240N20119 1914 27 WP MM NOT_NAMED 1914-09-03 10:00:00 NR 22.5000 115.200 main 24 20 __________O___ -1 22.5000 115.200 2 3 292
1914240N20119 1914 27 WP MM NOT_NAMED 1914-09-03 12:00:00 NR 22.5352 115.102 main 20 0 __________P___ -1 22.5352 115.102 2 3 289
1914240N20119 1914 27 WP MM NOT_NAMED 1914-09-03 15:00:00 NR 22.5862 114.937 main 0 0 __________P___ -1 22.5862 114.937 2 3 287
1914240N20119 1914 27 WP MM NOT_NAMED 1914-09-03 18:00:00 NR 22.6356 114.755 main 0 0 __________P___ -1 22.6356 114.755 2 4 286
1914240N20119 1914 27 WP MM NOT_NAMED 1914-09-03 21:00:00 NR 22.6840 114.564 main 10 0 __________P___ -1 22.6840 114.564 2 4 285
1914240N20119 1914 27 WP MM NOT_NAMED 1914-09-03 22:00:00 NR 22.7000 114.500 main 0 __________O___ -1 22.7000 114.500 2 4 287

Digital Typhoon Data and Search

About IBTrACS Database

This database is a web-friendly format of International Best Track Archive for Climate Stewardship (IBTrACS), a global best track data archive curated by NOAA dating back to 1842.

Updated: 2021-10-08